sensor_id;sensor_type;location;lat;lon;timestamp;temperature;humidity
9658;DHT22;4867;48.112;11.622;2023-07-29T00:00:49;16.70;99.90
9658;DHT22;4867;48.112;11.622;2023-07-29T00:03:16;16.70;99.90
9658;DHT22;4867;48.112;11.622;2023-07-29T00:05:43;16.70;99.90
9658;DHT22;4867;48.112;11.622;2023-07-29T00:08:11;16.60;99.90
9658;DHT22;4867;48.112;11.622;2023-07-29T00:10:38;16.60;99.90
9658;DHT22;4867;48.112;11.622;2023-07-29T00:13:07;16.60;99.90
9658;DHT22;4867;48.112;11.622;2023-07-29T00:15:34;16.60;99.90
9658;DHT22;4867;48.112;11.622;2023-07-29T00:18:01;16.60;99.90
9658;DHT22;4867;48.112;11.622;2023-07-29T00:20:29;16.70;99.90
9658;DHT22;4867;48.112;11.622;2023-07-29T00:22:56;16.50;99.90
9658;DHT22;4867;48.112;11.622;2023-07-29T00:25:25;16.50;99.90
9658;DHT22;4867;48.112;11.622;2023-07-29T00:27:55;16.50;99.90
9658;DHT22;4867;48.112;11.622;2023-07-29T00:30:24;16.50;99.90
9658;DHT22;4867;48.112;11.622;2023-07-29T00:32:51;16.50;99.90
9658;DHT22;4867;48.112;11.622;2023-07-29T00:35:18;16.50;99.90
9658;DHT22;4867;48.112;11.622;2023-07-29T00:37:46;16.50;99.90
9658;DHT22;4867;48.112;11.622;2023-07-29T00:40:18;16.40;99.90
9658;DHT22;4867;48.112;11.622;2023-07-29T00:42:48;16.50;99.90
9658;DHT22;4867;48.112;11.622;2023-07-29T00:45:16;16.50;99.90
9658;DHT22;4867;48.112;11.622;2023-07-29T00:47:44;16.50;99.90
9658;DHT22;4867;48.112;11.622;2023-07-29T00:50:13;16.40;99.90
9658;DHT22;4867;48.112;11.622;2023-07-29T00:52:41;16.50;99.90
9658;DHT22;4867;48.112;11.622;2023-07-29T00:55:08;16.40;99.90
9658;DHT22;4867;48.112;11.622;2023-07-29T00:57:36;16.50;99.90
9658;DHT22;4867;48.112;11.622;2023-07-29T01:00:04;16.50;99.90
9658;DHT22;4867;48.112;11.622;2023-07-29T01:02:32;16.60;99.90
9658;DHT22;4867;48.112;11.622;2023-07-29T01:05:00;16.60;99.90
9658;DHT22;4867;48.112;11.622;2023-07-29T01:07:53;16.60;99.90
9658;DHT22;4867;48.112;11.622;2023-07-29T01:10:51;16.70;99.90
9658;DHT22;4867;48.112;11.622;2023-07-29T01:13:51;16.70;99.90
9658;DHT22;4867;48.112;11.622;2023-07-29T01:16:25;16.70;99.90
9658;DHT22;4867;48.112;11.622;2023-07-29T01:18:58;16.80;99.90
9658;DHT22;4867;48.112;11.622;2023-07-29T01:21:29;16.60;99.90
9658;DHT22;4867;48.112;11.622;2023-07-29T01:23:59;16.60;99.90
9658;DHT22;4867;48.112;11.622;2023-07-29T01:26:27;16.60;99.90
9658;DHT22;4867;48.112;11.622;2023-07-29T01:28:59;16.60;99.90
9658;DHT22;4867;48.112;11.622;2023-07-29T01:31:42;16.60;99.90
9658;DHT22;4867;48.112;11.622;2023-07-29T01:34:21;16.60;99.90
9658;DHT22;4867;48.112;11.622;2023-07-29T01:36:51;16.60;99.90
9658;DHT22;4867;48.112;11.622;2023-07-29T01:39:21;16.50;99.90
9658;DHT22;4867;48.112;11.622;2023-07-29T01:41:50;16.50;99.90
9658;DHT22;4867;48.112;11.622;2023-07-29T01:44:18;16.30;99.90
9658;DHT22;4867;48.112;11.622;2023-07-29T01:46:47;16.40;99.90
9658;DHT22;4867;48.112;11.622;2023-07-29T01:49:14;16.30;99.90
9658;DHT22;4867;48.112;11.622;2023-07-29T01:51:41;16.30;99.90
9658;DHT22;4867;48.112;11.622;2023-07-29T01:54:09;16.20;99.90
9658;DHT22;4867;48.112;11.622;2023-07-29T01:56:36;16.20;99.90
9658;DHT22;4867;48.112;11.622;2023-07-29T01:59:04;16.20;99.90
9658;DHT22;4867;48.112;11.622;2023-07-29T02:01:31;16.30;99.90
9658;DHT22;4867;48.112;11.622;2023-07-29T02:03:59;16.20;99.90
9658;DHT22;4867;48.112;11.622;2023-07-29T02:06:26;16.20;99.90
9658;DHT22;4867;48.112;11.622;2023-07-29T02:08:54;16.20;99.90
9658;DHT22;4867;48.112;11.622;2023-07-29T02:11:22;16.30;99.90
9658;DHT22;4867;48.112;11.622;2023-07-29T02:13:55;16.40;99.90
9658;DHT22;4867;48.112;11.622;2023-07-29T02:16:23;16.20;99.90
9658;DHT22;4867;48.112;11.622;2023-07-29T02:18:50;16.20;99.90
9658;DHT22;4867;48.112;11.622;2023-07-29T02:21:22;16.20;99.90
9658;DHT22;4867;48.112;11.622;2023-07-29T02:23:49;16.20;99.90
9658;DHT22;4867;48.112;11.622;2023-07-29T02:26:17;16.20;99.90
9658;DHT22;4867;48.112;11.622;2023-07-29T02:28:45;16.20;99.90
9658;DHT22;4867;48.112;11.622;2023-07-29T02:33:47;16.10;99.90
9658;DHT22;4867;48.112;11.622;2023-07-29T02:36:16;16.10;99.90
9658;DHT22;4867;48.112;11.622;2023-07-29T02:38:43;16.20;99.90
9658;DHT22;4867;48.112;11.622;2023-07-29T02:41:11;16.00;99.90
9658;DHT22;4867;48.112;11.622;2023-07-29T02:43:43;15.90;99.90
9658;DHT22;4867;48.112;11.622;2023-07-29T02:46:15;15.90;99.90
9658;DHT22;4867;48.112;11.622;2023-07-29T02:48:44;15.80;99.90
9658;DHT22;4867;48.112;11.622;2023-07-29T02:51:12;15.80;99.90
9658;DHT22;4867;48.112;11.622;2023-07-29T02:53:39;15.70;99.90
9658;DHT22;4867;48.112;11.622;2023-07-29T02:56:06;15.70;99.90
9658;DHT22;4867;48.112;11.622;2023-07-29T02:58:36;15.80;99.90
9658;DHT22;4867;48.112;11.622;2023-07-29T03:01:05;15.80;99.90
9658;DHT22;4867;48.112;11.622;2023-07-29T03:03:33;15.80;99.90
9658;DHT22;4867;48.112;11.622;2023-07-29T03:06:04;15.80;99.90
9658;DHT22;4867;48.112;11.622;2023-07-29T03:08:31;15.80;99.90
9658;DHT22;4867;48.112;11.622;2023-07-29T03:11:04;15.80;99.90
9658;DHT22;4867;48.112;11.622;2023-07-29T03:13:31;15.80;99.90
9658;DHT22;4867;48.112;11.622;2023-07-29T03:16:09;15.80;99.90
9658;DHT22;4867;48.112;11.622;2023-07-29T03:18:39;15.80;99.90
9658;DHT22;4867;48.112;11.622;2023-07-29T03:21:07;15.70;99.90
9658;DHT22;4867;48.112;11.622;2023-07-29T03:23:35;15.70;99.90
9658;DHT22;4867;48.112;11.622;2023-07-29T03:26:03;15.70;99.90
9658;DHT22;4867;48.112;11.622;2023-07-29T03:28:39;15.70;99.90
9658;DHT22;4867;48.112;11.622;2023-07-29T03:31:06;15.70;99.90
9658;DHT22;4867;48.112;11.622;2023-07-29T03:33:34;15.70;99.90
9658;DHT22;4867;48.112;11.622;2023-07-29T03:36:02;15.70;99.90
9658;DHT22;4867;48.112;11.622;2023-07-29T03:38:29;15.80;99.90
9658;DHT22;4867;48.112;11.622;2023-07-29T03:40:57;15.90;99.90
9658;DHT22;4867;48.112;11.622;2023-07-29T03:43:24;15.80;99.90
9658;DHT22;4867;48.112;11.622;2023-07-29T03:45:55;15.80;99.90
9658;DHT22;4867;48.112;11.622;2023-07-29T03:48:22;15.80;99.90
9658;DHT22;4867;48.112;11.622;2023-07-29T03:50:50;15.80;99.90
9658;DHT22;4867;48.112;11.622;2023-07-29T03:53:17;15.90;99.90
9658;DHT22;4867;48.112;11.622;2023-07-29T03:55:44;15.90;99.90
9658;DHT22;4867;48.112;11.622;2023-07-29T03:58:12;15.90;99.90
9658;DHT22;4867;48.112;11.622;2023-07-29T04:00:39;15.80;99.90
9658;DHT22;4867;48.112;11.622;2023-07-29T04:03:06;16.10;99.90
9658;DHT22;4867;48.112;11.622;2023-07-29T04:05:34;16.00;99.90
9658;DHT22;4867;48.112;11.622;2023-07-29T04:08:01;16.10;99.90
9658;DHT22;4867;48.112;11.622;2023-07-29T04:10:29;16.10;99.90
9658;DHT22;4867;48.112;11.622;2023-07-29T04:12:59;16.20;99.90
9658;DHT22;4867;48.112;11.622;2023-07-29T04:15:26;16.30;99.90
9658;DHT22;4867;48.112;11.622;2023-07-29T04:17:53;16.30;99.90
9658;DHT22;4867;48.112;11.622;2023-07-29T04:20:20;16.30;99.90
9658;DHT22;4867;48.112;11.622;2023-07-29T04:22:48;16.40;99.90
9658;DHT22;4867;48.112;11.622;2023-07-29T04:25:15;16.40;99.90
9658;DHT22;4867;48.112;11.622;2023-07-29T04:27:42;16.40;99.90
9658;DHT22;4867;48.112;11.622;2023-07-29T04:30:10;16.50;99.90
9658;DHT22;4867;48.112;11.622;2023-07-29T04:32:37;16.50;99.90
9658;DHT22;4867;48.112;11.622;2023-07-29T04:35:08;16.50;99.90
9658;DHT22;4867;48.112;11.622;2023-07-29T04:37:36;16.60;99.90
9658;DHT22;4867;48.112;11.622;2023-07-29T04:40:04;16.60;99.90
9658;DHT22;4867;48.112;11.622;2023-07-29T04:42:31;16.70;99.90
9658;DHT22;4867;48.112;11.622;2023-07-29T04:44:59;17.00;99.90
9658;DHT22;4867;48.112;11.622;2023-07-29T04:47:26;17.10;99.90
9658;DHT22;4867;48.112;11.622;2023-07-29T04:49:54;17.30;99.90
9658;DHT22;4867;48.112;11.622;2023-07-29T04:52:21;17.40;99.90
9658;DHT22;4867;48.112;11.622;2023-07-29T04:54:49;17.80;99.90
9658;DHT22;4867;48.112;11.622;2023-07-29T04:57:16;18.10;99.90
9658;DHT22;4867;48.112;11.622;2023-07-29T04:59:44;18.50;99.90
9658;DHT22;4867;48.112;11.622;2023-07-29T05:02:11;18.60;99.90
9658;DHT22;4867;48.112;11.622;2023-07-29T05:04:38;18.60;99.90
9658;DHT22;4867;48.112;11.622;2023-07-29T05:07:06;18.80;99.90
9658;DHT22;4867;48.112;11.622;2023-07-29T05:09:33;18.90;99.90
9658;DHT22;4867;48.112;11.622;2023-07-29T05:12:01;19.00;99.90
9658;DHT22;4867;48.112;11.622;2023-07-29T05:14:28;19.00;99.90
9658;DHT22;4867;48.112;11.622;2023-07-29T05:16:55;19.20;99.90
9658;DHT22;4867;48.112;11.622;2023-07-29T05:19:22;19.20;99.90
9658;DHT22;4867;48.112;11.622;2023-07-29T05:21:50;19.20;99.90
9658;DHT22;4867;48.112;11.622;2023-07-29T05:24:17;19.20;99.90
9658;DHT22;4867;48.112;11.622;2023-07-29T05:26:44;19.30;99.90
9658;DHT22;4867;48.112;11.622;2023-07-29T05:29:12;19.30;99.90
9658;DHT22;4867;48.112;11.622;2023-07-29T05:31:39;19.30;99.90
9658;DHT22;4867;48.112;11.622;2023-07-29T05:34:07;19.20;99.90
9658;DHT22;4867;48.112;11.622;2023-07-29T05:36:34;19.30;99.90
9658;DHT22;4867;48.112;11.622;2023-07-29T05:39:02;19.20;99.90
9658;DHT22;4867;48.112;11.622;2023-07-29T05:41:29;19.30;99.90
9658;DHT22;4867;48.112;11.622;2023-07-29T05:43:57;19.20;99.90
9658;DHT22;4867;48.112;11.622;2023-07-29T05:46:24;19.20;99.90
9658;DHT22;4867;48.112;11.622;2023-07-29T05:48:52;19.20;99.90
9658;DHT22;4867;48.112;11.622;2023-07-29T05:51:19;19.30;99.90
9658;DHT22;4867;48.112;11.622;2023-07-29T05:53:46;19.20;99.90
9658;DHT22;4867;48.112;11.622;2023-07-29T05:56:13;19.30;99.90
9658;DHT22;4867;48.112;11.622;2023-07-29T05:58:41;19.30;99.90
9658;DHT22;4867;48.112;11.622;2023-07-29T06:01:08;19.20;99.90
9658;DHT22;4867;48.112;11.622;2023-07-29T06:03:36;19.20;99.90
9658;DHT22;4867;48.112;11.622;2023-07-29T06:06:03;19.20;99.90
9658;DHT22;4867;48.112;11.622;2023-07-29T06:08:31;19.00;99.90
9658;DHT22;4867;48.112;11.622;2023-07-29T06:11:01;18.80;99.90
9658;DHT22;4867;48.112;11.622;2023-07-29T06:13:28;18.70;99.90
9658;DHT22;4867;48.112;11.622;2023-07-29T06:15:56;18.60;99.90
9658;DHT22;4867;48.112;11.622;2023-07-29T06:18:24;18.50;99.90
9658;DHT22;4867;48.112;11.622;2023-07-29T06:20:51;18.20;99.90
9658;DHT22;4867;48.112;11.622;2023-07-29T06:23:18;18.20;99.90
9658;DHT22;4867;48.112;11.622;2023-07-29T06:25:46;18.10;99.90
9658;DHT22;4867;48.112;11.622;2023-07-29T06:28:13;18.10;99.90
9658;DHT22;4867;48.112;11.622;2023-07-29T06:30:40;18.20;99.90
9658;DHT22;4867;48.112;11.622;2023-07-29T06:33:08;18.20;99.90
9658;DHT22;4867;48.112;11.622;2023-07-29T06:35:36;18.30;99.90
9658;DHT22;4867;48.112;11.622;2023-07-29T06:38:03;18.40;99.90
9658;DHT22;4867;48.112;11.622;2023-07-29T06:40:30;18.60;99.90
9658;DHT22;4867;48.112;11.622;2023-07-29T06:42:57;18.60;99.90
9658;DHT22;4867;48.112;11.622;2023-07-29T06:45:25;18.60;99.90
9658;DHT22;4867;48.112;11.622;2023-07-29T06:47:52;18.60;99.90
9658;DHT22;4867;48.112;11.622;2023-07-29T06:50:19;18.50;99.90
9658;DHT22;4867;48.112;11.622;2023-07-29T06:52:47;18.50;99.90
9658;DHT22;4867;48.112;11.622;2023-07-29T06:55:14;18.40;99.90
9658;DHT22;4867;48.112;11.622;2023-07-29T06:57:41;18.30;99.90
9658;DHT22;4867;48.112;11.622;2023-07-29T07:00:09;18.20;99.90
9658;DHT22;4867;48.112;11.622;2023-07-29T07:02:36;18.10;99.90
9658;DHT22;4867;48.112;11.622;2023-07-29T07:05:04;18.10;99.90
9658;DHT22;4867;48.112;11.622;2023-07-29T07:07:31;18.00;99.90
9658;DHT22;4867;48.112;11.622;2023-07-29T07:09:58;18.00;99.90
9658;DHT22;4867;48.112;11.622;2023-07-29T07:12:27;17.90;99.90
9658;DHT22;4867;48.112;11.622;2023-07-29T07:14:55;17.90;99.90
9658;DHT22;4867;48.112;11.622;2023-07-29T07:17:22;17.90;99.90
9658;DHT22;4867;48.112;11.622;2023-07-29T07:19:49;18.00;99.90
9658;DHT22;4867;48.112;11.622;2023-07-29T07:22:17;18.00;99.90
9658;DHT22;4867;48.112;11.622;2023-07-29T07:24:44;17.90;99.90
9658;DHT22;4867;48.112;11.622;2023-07-29T07:27:11;18.00;99.90
9658;DHT22;4867;48.112;11.622;2023-07-29T07:29:39;18.00;99.90
9658;DHT22;4867;48.112;11.622;2023-07-29T07:32:06;18.10;99.90
9658;DHT22;4867;48.112;11.622;2023-07-29T07:34:33;18.10;99.90
9658;DHT22;4867;48.112;11.622;2023-07-29T07:37:02;18.20;99.90
9658;DHT22;4867;48.112;11.622;2023-07-29T07:39:32;18.20;99.90
9658;DHT22;4867;48.112;11.622;2023-07-29T07:41:59;18.20;99.90
9658;DHT22;4867;48.112;11.622;2023-07-29T07:44:27;18.30;99.90
9658;DHT22;4867;48.112;11.622;2023-07-29T07:46:54;18.50;99.90
9658;DHT22;4867;48.112;11.622;2023-07-29T07:49:22;18.50;99.90
9658;DHT22;4867;48.112;11.622;2023-07-29T07:51:50;18.60;99.90
9658;DHT22;4867;48.112;11.622;2023-07-29T07:54:17;18.70;99.90
9658;DHT22;4867;48.112;11.622;2023-07-29T07:56:45;18.90;99.90
9658;DHT22;4867;48.112;11.622;2023-07-29T07:59:12;19.00;99.90
9658;DHT22;4867;48.112;11.622;2023-07-29T08:01:42;19.10;99.90
9658;DHT22;4867;48.112;11.622;2023-07-29T08:04:10;19.20;99.90
9658;DHT22;4867;48.112;11.622;2023-07-29T08:06:37;19.30;99.90
9658;DHT22;4867;48.112;11.622;2023-07-29T08:09:05;19.40;99.90
9658;DHT22;4867;48.112;11.622;2023-07-29T08:11:32;19.50;99.90
9658;DHT22;4867;48.112;11.622;2023-07-29T08:14:00;19.60;99.90
9658;DHT22;4867;48.112;11.622;2023-07-29T08:16:27;19.70;99.90
9658;DHT22;4867;48.112;11.622;2023-07-29T08:18:55;19.70;99.90
9658;DHT22;4867;48.112;11.622;2023-07-29T08:21:28;19.80;99.90
9658;DHT22;4867;48.112;11.622;2023-07-29T08:23:55;19.90;99.90
9658;DHT22;4867;48.112;11.622;2023-07-29T08:26:23;20.00;99.90
9658;DHT22;4867;48.112;11.622;2023-07-29T08:28:50;20.20;99.90
9658;DHT22;4867;48.112;11.622;2023-07-29T08:31:21;20.40;99.90
9658;DHT22;4867;48.112;11.622;2023-07-29T08:33:48;20.50;99.90
9658;DHT22;4867;48.112;11.622;2023-07-29T08:36:16;20.70;99.90
9658;DHT22;4867;48.112;11.622;2023-07-29T08:38:43;20.80;99.90
9658;DHT22;4867;48.112;11.622;2023-07-29T08:41:16;20.80;99.90
9658;DHT22;4867;48.112;11.622;2023-07-29T08:44:06;20.90;99.90
9658;DHT22;4867;48.112;11.622;2023-07-29T08:46:39;20.90;99.90
9658;DHT22;4867;48.112;11.622;2023-07-29T08:49:08;20.90;99.90
9658;DHT22;4867;48.112;11.622;2023-07-29T08:51:36;20.90;99.90
9658;DHT22;4867;48.112;11.622;2023-07-29T08:54:03;21.00;99.90
9658;DHT22;4867;48.112;11.622;2023-07-29T08:56:31;21.00;99.90
9658;DHT22;4867;48.112;11.622;2023-07-29T08:58:59;21.10;99.90
9658;DHT22;4867;48.112;11.622;2023-07-29T09:01:29;21.20;99.90
9658;DHT22;4867;48.112;11.622;2023-07-29T09:03:58;21.30;99.90
9658;DHT22;4867;48.112;11.622;2023-07-29T09:06:25;21.40;99.90
9658;DHT22;4867;48.112;11.622;2023-07-29T09:08:54;21.50;99.90
9658;DHT22;4867;48.112;11.622;2023-07-29T09:11:23;21.50;99.90
9658;DHT22;4867;48.112;11.622;2023-07-29T09:13:51;21.60;99.90
9658;DHT22;4867;48.112;11.622;2023-07-29T09:16:23;21.60;99.90
9658;DHT22;4867;48.112;11.622;2023-07-29T09:18:51;21.70;99.90
9658;DHT22;4867;48.112;11.622;2023-07-29T09:21:25;21.80;99.90
9658;DHT22;4867;48.112;11.622;2023-07-29T09:23:54;21.80;99.90
9658;DHT22;4867;48.112;11.622;2023-07-29T09:26:26;22.10;99.90
9658;DHT22;4867;48.112;11.622;2023-07-29T09:28:58;22.20;99.90
9658;DHT22;4867;48.112;11.622;2023-07-29T09:31:27;22.30;99.90
9658;DHT22;4867;48.112;11.622;2023-07-29T09:34:03;22.50;99.90
9658;DHT22;4867;48.112;11.622;2023-07-29T09:36:32;22.60;99.90
9658;DHT22;4867;48.112;11.622;2023-07-29T09:39:00;22.80;99.90
9658;DHT22;4867;48.112;11.622;2023-07-29T09:41:28;23.10;99.90
9658;DHT22;4867;48.112;11.622;2023-07-29T09:44:03;23.20;99.90
9658;DHT22;4867;48.112;11.622;2023-07-29T09:46:36;23.40;99.90
9658;DHT22;4867;48.112;11.622;2023-07-29T09:49:07;23.50;99.90
9658;DHT22;4867;48.112;11.622;2023-07-29T09:51:38;23.60;99.90
9658;DHT22;4867;48.112;11.622;2023-07-29T09:54:06;23.80;99.90
9658;DHT22;4867;48.112;11.622;2023-07-29T09:56:39;24.00;99.90
9658;DHT22;4867;48.112;11.622;2023-07-29T09:59:08;24.10;99.90
9658;DHT22;4867;48.112;11.622;2023-07-29T10:01:35;24.10;99.90
9658;DHT22;4867;48.112;11.622;2023-07-29T10:04:04;24.30;99.90
9658;DHT22;4867;48.112;11.622;2023-07-29T10:06:34;24.50;99.90
9658;DHT22;4867;48.112;11.622;2023-07-29T10:09:04;24.50;99.90
9658;DHT22;4867;48.112;11.622;2023-07-29T10:11:32;24.60;99.90
9658;DHT22;4867;48.112;11.622;2023-07-29T10:14:01;24.70;99.90
9658;DHT22;4867;48.112;11.622;2023-07-29T10:16:40;24.70;99.90
9658;DHT22;4867;48.112;11.622;2023-07-29T10:19:09;24.70;99.90
9658;DHT22;4867;48.112;11.622;2023-07-29T10:21:38;24.70;99.90
9658;DHT22;4867;48.112;11.622;2023-07-29T10:24:11;24.80;99.90
9658;DHT22;4867;48.112;11.622;2023-07-29T10:26:44;24.80;99.90
9658;DHT22;4867;48.112;11.622;2023-07-29T10:29:13;24.70;99.90
9658;DHT22;4867;48.112;11.622;2023-07-29T10:31:44;24.70;99.90
9658;DHT22;4867;48.112;11.622;2023-07-29T10:34:12;24.70;99.90
9658;DHT22;4867;48.112;11.622;2023-07-29T10:36:41;24.80;99.90
9658;DHT22;4867;48.112;11.622;2023-07-29T10:39:08;24.90;99.90
9658;DHT22;4867;48.112;11.622;2023-07-29T10:49:58;25.60;99.90
9658;DHT22;4867;48.112;11.622;2023-07-29T10:52:31;25.60;99.90
9658;DHT22;4867;48.112;11.622;2023-07-29T10:54:59;25.60;99.90
9658;DHT22;4867;48.112;11.622;2023-07-29T10:57:35;25.40;99.90
9658;DHT22;4867;48.112;11.622;2023-07-29T11:00:04;25.30;99.90
9658;DHT22;4867;48.112;11.622;2023-07-29T11:02:36;25.30;99.90
9658;DHT22;4867;48.112;11.622;2023-07-29T11:05:16;25.20;99.90
9658;DHT22;4867;48.112;11.622;2023-07-29T11:07:46;25.30;99.90
9658;DHT22;4867;48.112;11.622;2023-07-29T11:10:15;25.60;99.90
9658;DHT22;4867;48.112;11.622;2023-07-29T11:15:22;25.90;99.90
9658;DHT22;4867;48.112;11.622;2023-07-29T11:18:00;25.90;99.90
9658;DHT22;4867;48.112;11.622;2023-07-29T11:20:32;25.90;99.90
9658;DHT22;4867;48.112;11.622;2023-07-29T11:23:01;26.00;99.90
9658;DHT22;4867;48.112;11.622;2023-07-29T11:25:30;26.00;99.90
9658;DHT22;4867;48.112;11.622;2023-07-29T11:27:59;26.10;99.90
9658;DHT22;4867;48.112;11.622;2023-07-29T11:30:28;25.40;99.90
9658;DHT22;4867;48.112;11.622;2023-07-29T11:32:58;24.90;99.90
9658;DHT22;4867;48.112;11.622;2023-07-29T11:35:26;24.60;99.90
9658;DHT22;4867;48.112;11.622;2023-07-29T11:37:54;24.20;99.90
9658;DHT22;4867;48.112;11.622;2023-07-29T11:40:23;23.80;99.90
9658;DHT22;4867;48.112;11.622;2023-07-29T11:42:52;23.80;99.90
9658;DHT22;4867;48.112;11.622;2023-07-29T11:45:20;23.90;99.90
9658;DHT22;4867;48.112;11.622;2023-07-29T11:47:51;24.00;99.90
9658;DHT22;4867;48.112;11.622;2023-07-29T11:50:18;24.00;99.90
9658;DHT22;4867;48.112;11.622;2023-07-29T11:52:46;24.30;99.90
9658;DHT22;4867;48.112;11.622;2023-07-29T11:55:15;24.50;99.90
9658;DHT22;4867;48.112;11.622;2023-07-29T11:57:43;24.60;99.90
9658;DHT22;4867;48.112;11.622;2023-07-29T12:00:11;24.50;99.90
9658;DHT22;4867;48.112;11.622;2023-07-29T12:02:42;24.50;99.90
9658;DHT22;4867;48.112;11.622;2023-07-29T12:05:13;24.60;99.90
9658;DHT22;4867;48.112;11.622;2023-07-29T12:07:42;24.70;99.90
9658;DHT22;4867;48.112;11.622;2023-07-29T12:10:10;24.90;99.90
9658;DHT22;4867;48.112;11.622;2023-07-29T12:12:44;24.90;99.90
9658;DHT22;4867;48.112;11.622;2023-07-29T12:15:12;24.80;99.90
9658;DHT22;4867;48.112;11.622;2023-07-29T12:17:40;24.90;99.90
9658;DHT22;4867;48.112;11.622;2023-07-29T12:20:09;25.10;99.90
9658;DHT22;4867;48.112;11.622;2023-07-29T12:22:38;25.30;99.90
9658;DHT22;4867;48.112;11.622;2023-07-29T12:25:06;25.40;99.90
9658;DHT22;4867;48.112;11.622;2023-07-29T12:27:34;25.50;99.90
9658;DHT22;4867;48.112;11.622;2023-07-29T12:30:01;25.50;99.90
9658;DHT22;4867;48.112;11.622;2023-07-29T12:32:31;25.80;99.90
9658;DHT22;4867;48.112;11.622;2023-07-29T12:34:58;26.10;99.90
9658;DHT22;4867;48.112;11.622;2023-07-29T12:37:32;26.40;99.90
9658;DHT22;4867;48.112;11.622;2023-07-29T12:40:00;26.60;99.90
9658;DHT22;4867;48.112;11.622;2023-07-29T12:42:27;26.40;99.90
9658;DHT22;4867;48.112;11.622;2023-07-29T12:44:54;26.20;99.90
9658;DHT22;4867;48.112;11.622;2023-07-29T12:47:21;25.80;99.90
9658;DHT22;4867;48.112;11.622;2023-07-29T12:49:49;25.60;99.90
9658;DHT22;4867;48.112;11.622;2023-07-29T12:52:16;25.60;99.90
9658;DHT22;4867;48.112;11.622;2023-07-29T12:54:43;25.50;99.90
9658;DHT22;4867;48.112;11.622;2023-07-29T12:57:11;25.40;99.90
9658;DHT22;4867;48.112;11.622;2023-07-29T12:59:38;25.20;99.90
9658;DHT22;4867;48.112;11.622;2023-07-29T13:02:06;24.80;99.90
9658;DHT22;4867;48.112;11.622;2023-07-29T13:04:34;24.00;99.90
9658;DHT22;4867;48.112;11.622;2023-07-29T13:07:01;23.50;99.90
9658;DHT22;4867;48.112;11.622;2023-07-29T13:09:28;23.30;99.90
9658;DHT22;4867;48.112;11.622;2023-07-29T13:11:56;22.90;99.90
9658;DHT22;4867;48.112;11.622;2023-07-29T13:14:23;22.50;99.90
9658;DHT22;4867;48.112;11.622;2023-07-29T13:16:50;22.20;99.90
9658;DHT22;4867;48.112;11.622;2023-07-29T13:19:21;21.70;99.90
9658;DHT22;4867;48.112;11.622;2023-07-29T13:21:48;21.20;99.90
9658;DHT22;4867;48.112;11.622;2023-07-29T13:24:15;20.90;99.90
9658;DHT22;4867;48.112;11.622;2023-07-29T13:26:42;20.60;99.90
9658;DHT22;4867;48.112;11.622;2023-07-29T13:29:10;20.40;99.90
9658;DHT22;4867;48.112;11.622;2023-07-29T13:31:37;20.30;99.90
9658;DHT22;4867;48.112;11.622;2023-07-29T13:34:04;20.30;99.90
9658;DHT22;4867;48.112;11.622;2023-07-29T13:36:31;20.30;99.90
9658;DHT22;4867;48.112;11.622;2023-07-29T13:38:58;20.30;99.90
9658;DHT22;4867;48.112;11.622;2023-07-29T13:41:26;20.20;99.90
9658;DHT22;4867;48.112;11.622;2023-07-29T13:43:53;20.20;99.90
9658;DHT22;4867;48.112;11.622;2023-07-29T13:46:20;20.30;99.90
9658;DHT22;4867;48.112;11.622;2023-07-29T13:48:48;20.40;99.90
9658;DHT22;4867;48.112;11.622;2023-07-29T13:51:16;20.50;99.90
9658;DHT22;4867;48.112;11.622;2023-07-29T13:53:43;20.50;99.90
9658;DHT22;4867;48.112;11.622;2023-07-29T13:56:10;20.60;99.90
9658;DHT22;4867;48.112;11.622;2023-07-29T13:58:37;20.70;99.90
9658;DHT22;4867;48.112;11.622;2023-07-29T14:01:05;20.80;99.90
9658;DHT22;4867;48.112;11.622;2023-07-29T14:03:35;20.90;99.90
9658;DHT22;4867;48.112;11.622;2023-07-29T14:06:02;20.90;99.90
9658;DHT22;4867;48.112;11.622;2023-07-29T14:08:30;21.00;99.90
9658;DHT22;4867;48.112;11.622;2023-07-29T14:10:57;20.90;99.90
9658;DHT22;4867;48.112;11.622;2023-07-29T14:13:24;20.90;99.90
9658;DHT22;4867;48.112;11.622;2023-07-29T14:15:51;20.80;99.90
9658;DHT22;4867;48.112;11.622;2023-07-29T14:18:19;20.60;99.90
9658;DHT22;4867;48.112;11.622;2023-07-29T14:20:46;20.60;99.90
9658;DHT22;4867;48.112;11.622;2023-07-29T14:23:14;20.60;99.90
9658;DHT22;4867;48.112;11.622;2023-07-29T14:25:41;20.60;99.90
9658;DHT22;4867;48.112;11.622;2023-07-29T14:28:08;20.50;99.90
9658;DHT22;4867;48.112;11.622;2023-07-29T14:30:36;20.60;99.90
9658;DHT22;4867;48.112;11.622;2023-07-29T14:33:04;20.70;99.90
9658;DHT22;4867;48.112;11.622;2023-07-29T14:35:32;20.70;99.90
9658;DHT22;4867;48.112;11.622;2023-07-29T14:37:59;20.80;99.90
9658;DHT22;4867;48.112;11.622;2023-07-29T14:40:26;20.80;99.90
9658;DHT22;4867;48.112;11.622;2023-07-29T14:42:54;20.80;99.90
9658;DHT22;4867;48.112;11.622;2023-07-29T14:45:21;20.70;99.90
9658;DHT22;4867;48.112;11.622;2023-07-29T14:47:48;20.60;99.90
9658;DHT22;4867;48.112;11.622;2023-07-29T14:50:16;20.60;99.90
9658;DHT22;4867;48.112;11.622;2023-07-29T14:52:43;20.50;99.90
9658;DHT22;4867;48.112;11.622;2023-07-29T14:55:10;20.40;99.90
9658;DHT22;4867;48.112;11.622;2023-07-29T14:57:37;20.30;99.90
9658;DHT22;4867;48.112;11.622;2023-07-29T15:00:05;20.20;99.90
9658;DHT22;4867;48.112;11.622;2023-07-29T15:02:32;20.20;99.90
9658;DHT22;4867;48.112;11.622;2023-07-29T15:05:00;20.10;99.90
9658;DHT22;4867;48.112;11.622;2023-07-29T15:07:27;19.90;99.90
9658;DHT22;4867;48.112;11.622;2023-07-29T15:09:54;20.00;99.90
9658;DHT22;4867;48.112;11.622;2023-07-29T15:12:22;20.00;99.90
9658;DHT22;4867;48.112;11.622;2023-07-29T15:14:49;20.00;99.90
9658;DHT22;4867;48.112;11.622;2023-07-29T15:17:16;20.00;99.90
9658;DHT22;4867;48.112;11.622;2023-07-29T15:19:43;20.10;99.90
9658;DHT22;4867;48.112;11.622;2023-07-29T15:22:11;20.10;99.90
9658;DHT22;4867;48.112;11.622;2023-07-29T15:24:38;20.00;99.90
9658;DHT22;4867;48.112;11.622;2023-07-29T15:27:07;20.20;99.90
9658;DHT22;4867;48.112;11.622;2023-07-29T15:29:34;20.20;99.90
9658;DHT22;4867;48.112;11.622;2023-07-29T15:32:01;20.30;99.90
9658;DHT22;4867;48.112;11.622;2023-07-29T15:34:29;20.40;99.90
9658;DHT22;4867;48.112;11.622;2023-07-29T15:36:58;20.50;99.90
9658;DHT22;4867;48.112;11.622;2023-07-29T15:39:26;20.50;99.90
9658;DHT22;4867;48.112;11.622;2023-07-29T15:41:53;20.60;99.90
9658;DHT22;4867;48.112;11.622;2023-07-29T15:44:20;20.60;99.90
9658;DHT22;4867;48.112;11.622;2023-07-29T15:46:47;20.80;99.90
9658;DHT22;4867;48.112;11.622;2023-07-29T15:49:15;20.70;99.90
9658;DHT22;4867;48.112;11.622;2023-07-29T15:51:42;20.70;99.90
9658;DHT22;4867;48.112;11.622;2023-07-29T15:54:09;20.70;99.90
9658;DHT22;4867;48.112;11.622;2023-07-29T15:56:37;20.80;99.90
9658;DHT22;4867;48.112;11.622;2023-07-29T15:59:06;20.80;99.90
9658;DHT22;4867;48.112;11.622;2023-07-29T16:01:34;20.80;99.90
9658;DHT22;4867;48.112;11.622;2023-07-29T16:04:01;20.90;99.90
9658;DHT22;4867;48.112;11.622;2023-07-29T16:06:29;20.90;99.90